Etusivu
METAR-TAF:

METAR-TAF

Lentoasemat :

Gibraltarin lentoasema

Gibraltar, Gibraltar

Leveyspiiri: 36-09N, Pituuspiiri: 005-21W, korkeus merenpinnasta: 5 m

Tämänhetkinen sää

Tämä raportti tehtiin 41 minuuttia sitten, kello 14.20 UTC
Tuuli 10 kn lännestä/lounaasta puuskistuen 22 kn:hen
Lämpötila 27°C
Kosteus 51%
Ilmanpaine 1014 hPa
Näkyvyys 10 km tai enemmän
Muutamia pilviä 4000 ft:n korkeudessa

METAR: LXGB 151420Z 24010G22KT 9999 FEW040 27/16 Q1014 NOSIG

Aika: 17:01 (15:01 UTC)

Sääennuste

Tämä raportti tehtiin 1 tunti ja 15 minuuttia sitten, kello 13.46 UTC
Ennuste voimassa 15. päivästä klo 15 UTC - 15. päivään klo 22 UTC
Tuuli 12 kn lounaasta
Näkyvyys 10 km tai enemmän
Muutamia pilviä 2000 ft:n korkeudessa
Ajoittain
15. päivästä klo 15 UTC - 15. päivään klo 19 UTC
Tuuli 15 kn lounaasta puuskistuen 26 kn:hen

TAF: LXGB 151346Z 1515/1522 22012KT 9999 FEW020 TEMPO 1515/1519 23015G26KT 530002

Säähavainnot ja -ennusteet yli 4000 lentoasemalta (METAR- ja TAF-raportit).

Käytössä olevat sääasemat on merkitty karttaan keltaisilla ja punaisilla pisteillä.

Aseta hiiri pisteen päälle nähdäksesi sääaseman nimen.

Klikkaa sitten nähdäksesi säähavainnot ja -ennusteet.

Kartan vaihtaminen: klikkaa mustalla rastilla varustettuja vihreitä pisteitä, niin voit zoomata sisään; viivalla varustettua vihreää pistettä, niin voit zoomata ulos tai vihreitä nuolia, niin pääset viereisille kartoille.


METAR-TAF: